sensor_id;sensor_type;location;lat;lon;timestamp;temperature;humidity
53314;DHT22;39202;51.468;7.146;2022-07-01T00:00:55;32.10;38.60
53314;DHT22;39202;51.468;7.146;2022-07-01T00:05:57;32.10;38.70
53314;DHT22;39202;51.468;7.146;2022-07-01T00:11:00;32.00;38.60
53314;DHT22;39202;51.468;7.146;2022-07-01T00:16:02;32.00;38.60
53314;DHT22;39202;51.468;7.146;2022-07-01T00:21:04;32.00;38.90
53314;DHT22;39202;51.468;7.146;2022-07-01T00:26:07;32.00;38.70
53314;DHT22;39202;51.468;7.146;2022-07-01T00:31:09;32.00;38.70
53314;DHT22;39202;51.468;7.146;2022-07-01T00:36:10;32.00;38.70
53314;DHT22;39202;51.468;7.146;2022-07-01T00:41:13;32.00;38.80
53314;DHT22;39202;51.468;7.146;2022-07-01T00:46:17;32.00;38.80
53314;DHT22;39202;51.468;7.146;2022-07-01T00:51:19;31.90;38.70
53314;DHT22;39202;51.468;7.146;2022-07-01T00:56:22;31.90;38.70
53314;DHT22;39202;51.468;7.146;2022-07-01T01:01:24;31.90;38.80
53314;DHT22;39202;51.468;7.146;2022-07-01T01:06:26;31.90;38.80
53314;DHT22;39202;51.468;7.146;2022-07-01T01:11:29;31.90;38.90
53314;DHT22;39202;51.468;7.146;2022-07-01T01:16:32;31.90;38.90
53314;DHT22;39202;51.468;7.146;2022-07-01T01:21:37;31.90;38.90
53314;DHT22;39202;51.468;7.146;2022-07-01T01:26:39;31.90;38.90
53314;DHT22;39202;51.468;7.146;2022-07-01T01:31:40;31.90;38.90
53314;DHT22;39202;51.468;7.146;2022-07-01T01:36:43;31.80;38.90
53314;DHT22;39202;51.468;7.146;2022-07-01T01:41:45;31.80;39.00
53314;DHT22;39202;51.468;7.146;2022-07-01T01:46:47;31.80;39.00
53314;DHT22;39202;51.468;7.146;2022-07-01T01:51:50;31.80;39.00
53314;DHT22;39202;51.468;7.146;2022-07-01T01:56:51;31.80;39.00
53314;DHT22;39202;51.468;7.146;2022-07-01T02:01:53;31.80;39.00
53314;DHT22;39202;51.468;7.146;2022-07-01T02:06:56;31.80;39.00
53314;DHT22;39202;51.468;7.146;2022-07-01T02:11:58;31.80;39.10
53314;DHT22;39202;51.468;7.146;2022-07-01T02:17:00;31.80;39.00
53314;DHT22;39202;51.468;7.146;2022-07-01T02:22:03;31.80;39.10
53314;DHT22;39202;51.468;7.146;2022-07-01T02:27:05;31.70;39.00
53314;DHT22;39202;51.468;7.146;2022-07-01T02:32:07;31.70;39.00
53314;DHT22;39202;51.468;7.146;2022-07-01T02:37:10;31.70;39.10
53314;DHT22;39202;51.468;7.146;2022-07-01T02:42:11;31.70;39.10
53314;DHT22;39202;51.468;7.146;2022-07-01T02:47:30;31.70;39.10
53314;DHT22;39202;51.468;7.146;2022-07-01T02:52:34;31.70;39.10
53314;DHT22;39202;51.468;7.146;2022-07-01T02:57:36;31.70;39.10
53314;DHT22;39202;51.468;7.146;2022-07-01T03:02:38;31.70;39.10
53314;DHT22;39202;51.468;7.146;2022-07-01T03:07:41;31.60;39.10
53314;DHT22;39202;51.468;7.146;2022-07-01T03:12:43;31.60;39.10
53314;DHT22;39202;51.468;7.146;2022-07-01T03:17:46;31.60;39.10
53314;DHT22;39202;51.468;7.146;2022-07-01T03:22:50;31.70;39.20
53314;DHT22;39202;51.468;7.146;2022-07-01T03:27:51;31.60;39.20
53314;DHT22;39202;51.468;7.146;2022-07-01T03:32:53;31.60;39.20
53314;DHT22;39202;51.468;7.146;2022-07-01T03:37:56;31.60;39.20
53314;DHT22;39202;51.468;7.146;2022-07-01T03:42:59;31.60;39.20
53314;DHT22;39202;51.468;7.146;2022-07-01T03:48:01;31.60;39.20
53314;DHT22;39202;51.468;7.146;2022-07-01T03:53:05;31.60;39.20
53314;DHT22;39202;51.468;7.146;2022-07-01T03:58:24;31.60;39.30
53314;DHT22;39202;51.468;7.146;2022-07-01T04:03:25;31.60;39.20
53314;DHT22;39202;51.468;7.146;2022-07-01T04:08:28;31.60;39.30
53314;DHT22;39202;51.468;7.146;2022-07-01T04:13:30;31.50;39.20
53314;DHT22;39202;51.468;7.146;2022-07-01T04:18:32;31.50;39.20
53314;DHT22;39202;51.468;7.146;2022-07-01T04:23:35;31.60;39.30
53314;DHT22;39202;51.468;7.146;2022-07-01T04:28:37;31.60;39.30
53314;DHT22;39202;51.468;7.146;2022-07-01T04:33:39;31.50;39.30
53314;DHT22;39202;51.468;7.146;2022-07-01T04:38:42;31.50;39.30
53314;DHT22;39202;51.468;7.146;2022-07-01T04:43:44;31.50;39.30
53314;DHT22;39202;51.468;7.146;2022-07-01T04:48:45;31.50;39.30
53314;DHT22;39202;51.468;7.146;2022-07-01T04:53:48;31.50;39.30
53314;DHT22;39202;51.468;7.146;2022-07-01T04:58:50;31.60;39.30
53314;DHT22;39202;51.468;7.146;2022-07-01T05:03:52;31.60;39.30
53314;DHT22;39202;51.468;7.146;2022-07-01T05:08:55;31.50;39.30
53314;DHT22;39202;51.468;7.146;2022-07-01T05:13:56;31.50;39.30
53314;DHT22;39202;51.468;7.146;2022-07-01T05:18:58;31.50;39.30
53314;DHT22;39202;51.468;7.146;2022-07-01T05:24:19;31.50;39.30
53314;DHT22;39202;51.468;7.146;2022-07-01T05:29:20;31.50;39.30
53314;DHT22;39202;51.468;7.146;2022-07-01T05:34:22;31.50;39.30
53314;DHT22;39202;51.468;7.146;2022-07-01T05:39:25;31.50;39.30
53314;DHT22;39202;51.468;7.146;2022-07-01T05:44:27;31.50;39.00
53314;DHT22;39202;51.468;7.146;2022-07-01T05:49:29;31.50;38.70
53314;DHT22;39202;51.468;7.146;2022-07-01T05:54:32;31.40;38.50
53314;DHT22;39202;51.468;7.146;2022-07-01T05:59:33;31.30;38.20
53314;DHT22;39202;51.468;7.146;2022-07-01T06:04:35;30.90;64.80
53314;DHT22;39202;51.468;7.146;2022-07-01T06:09:38;30.80;38.50
53314;DHT22;39202;51.468;7.146;2022-07-01T06:14:40;30.60;38.20
53314;DHT22;39202;51.468;7.146;2022-07-01T06:19:42;31.10;44.90
53314;DHT22;39202;51.468;7.146;2022-07-01T06:24:45;30.50;38.50
53314;DHT22;39202;51.468;7.146;2022-07-01T06:29:46;30.30;38.40
53314;DHT22;39202;51.468;7.146;2022-07-01T06:34:48;30.30;38.60
53314;DHT22;39202;51.468;7.146;2022-07-01T06:39:51;30.20;38.50
53314;DHT22;39202;51.468;7.146;2022-07-01T06:44:53;30.00;40.90
53314;DHT22;39202;51.468;7.146;2022-07-01T06:49:55;29.90;39.00
53314;DHT22;39202;51.468;7.146;2022-07-01T06:54:58;29.90;39.20
53314;DHT22;39202;51.468;7.146;2022-07-01T06:59:59;29.90;39.60
53314;DHT22;39202;51.468;7.146;2022-07-01T07:05:01;29.90;40.00
53314;DHT22;39202;51.468;7.146;2022-07-01T07:10:05;30.00;39.70
53314;DHT22;39202;51.468;7.146;2022-07-01T07:15:08;30.10;39.60
53314;DHT22;39202;51.468;7.146;2022-07-01T07:20:10;30.20;39.50
53314;DHT22;39202;51.468;7.146;2022-07-01T07:25:13;30.30;39.50
53314;DHT22;39202;51.468;7.146;2022-07-01T07:30:15;30.40;39.40
53314;DHT22;39202;51.468;7.146;2022-07-01T07:35:17;30.50;39.40
53314;DHT22;39202;51.468;7.146;2022-07-01T07:40:20;30.60;39.30
53314;DHT22;39202;51.468;7.146;2022-07-01T07:45:22;30.70;39.20
53314;DHT22;39202;51.468;7.146;2022-07-01T07:50:24;30.80;39.10
53314;DHT22;39202;51.468;7.146;2022-07-01T07:55:27;30.80;38.80
53314;DHT22;39202;51.468;7.146;2022-07-01T08:00:28;30.90;38.70
53314;DHT22;39202;51.468;7.146;2022-07-01T08:05:30;31.00;38.80
53314;DHT22;39202;51.468;7.146;2022-07-01T08:10:33;31.00;38.80
53314;DHT22;39202;51.468;7.146;2022-07-01T08:15:35;31.10;38.90
53314;DHT22;39202;51.468;7.146;2022-07-01T08:20:37;31.10;38.90
53314;DHT22;39202;51.468;7.146;2022-07-01T08:25:40;31.10;38.90
53314;DHT22;39202;51.468;7.146;2022-07-01T08:30:41;31.10;38.90
53314;DHT22;39202;51.468;7.146;2022-07-01T08:35:43;31.20;39.00
53314;DHT22;39202;51.468;7.146;2022-07-01T08:40:46;31.10;38.90
53314;DHT22;39202;51.468;7.146;2022-07-01T08:45:51;31.10;38.90
53314;DHT22;39202;51.468;7.146;2022-07-01T08:50:52;31.20;38.90
53314;DHT22;39202;51.468;7.146;2022-07-01T08:55:55;31.20;38.90
53314;DHT22;39202;51.468;7.146;2022-07-01T09:01:16;31.30;38.90
53314;DHT22;39202;51.468;7.146;2022-07-01T09:06:20;31.30;38.80
53314;DHT22;39202;51.468;7.146;2022-07-01T09:11:25;31.30;38.80
53314;DHT22;39202;51.468;7.146;2022-07-01T09:16:26;31.40;38.80
53314;DHT22;39202;51.468;7.146;2022-07-01T09:21:29;31.50;38.80
53314;DHT22;39202;51.468;7.146;2022-07-01T09:26:32;31.50;38.70
53314;DHT22;39202;51.468;7.146;2022-07-01T09:31:34;31.60;38.60
53314;DHT22;39202;51.468;7.146;2022-07-01T09:36:37;31.60;38.50
53314;DHT22;39202;51.468;7.146;2022-07-01T09:41:42;31.60;38.50
53314;DHT22;39202;51.468;7.146;2022-07-01T09:46:54;31.60;39.20
53314;DHT22;39202;51.468;7.146;2022-07-01T09:51:57;31.60;38.50
53314;DHT22;39202;51.468;7.146;2022-07-01T09:57:00;31.70;38.50
53314;DHT22;39202;51.468;7.146;2022-07-01T10:02:02;31.70;37.90
53314;DHT22;39202;51.468;7.146;2022-07-01T10:07:13;31.70;37.40
53314;DHT22;39202;51.468;7.146;2022-07-01T10:12:36;31.60;36.30
53314;DHT22;39202;51.468;7.146;2022-07-01T10:17:42;31.50;36.80
53314;DHT22;39202;51.468;7.146;2022-07-01T10:22:45;31.40;36.90
53314;DHT22;39202;51.468;7.146;2022-07-01T10:28:24;31.30;36.80
53314;DHT22;39202;51.468;7.146;2022-07-01T10:33:31;31.20;36.80
53314;DHT22;39202;51.468;7.146;2022-07-01T10:38:33;31.20;37.30
53314;DHT22;39202;51.468;7.146;2022-07-01T10:43:37;31.10;36.90
53314;DHT22;39202;51.468;7.146;2022-07-01T10:48:48;31.10;36.90
53314;DHT22;39202;51.468;7.146;2022-07-01T10:53:50;31.10;36.50
53314;DHT22;39202;51.468;7.146;2022-07-01T10:59:00;31.10;36.70
53314;DHT22;39202;51.468;7.146;2022-07-01T11:04:03;31.10;36.40
53314;DHT22;39202;51.468;7.146;2022-07-01T11:09:04;31.10;37.00
53314;DHT22;39202;51.468;7.146;2022-07-01T11:14:08;31.10;36.70
53314;DHT22;39202;51.468;7.146;2022-07-01T11:19:10;31.10;36.70
53314;DHT22;39202;51.468;7.146;2022-07-01T11:24:12;31.10;36.50
53314;DHT22;39202;51.468;7.146;2022-07-01T11:29:24;31.10;35.90
53314;DHT22;39202;51.468;7.146;2022-07-01T11:34:27;31.10;35.80
53314;DHT22;39202;51.468;7.146;2022-07-01T11:39:31;31.10;35.40
53314;DHT22;39202;51.468;7.146;2022-07-01T11:44:37;31.00;35.50
53314;DHT22;39202;51.468;7.146;2022-07-01T11:49:47;31.00;35.70
53314;DHT22;39202;51.468;7.146;2022-07-01T11:54:50;30.90;35.60
53314;DHT22;39202;51.468;7.146;2022-07-01T11:59:55;30.90;35.80
53314;DHT22;39202;51.468;7.146;2022-07-01T12:04:59;30.90;36.50
53314;DHT22;39202;51.468;7.146;2022-07-01T12:10:01;30.90;36.00
53314;DHT22;39202;51.468;7.146;2022-07-01T12:15:13;30.90;36.30
53314;DHT22;39202;51.468;7.146;2022-07-01T12:20:15;30.90;35.60
53314;DHT22;39202;51.468;7.146;2022-07-01T12:25:32;31.00;35.50
53314;DHT22;39202;51.468;7.146;2022-07-01T12:30:35;31.00;36.00
53314;DHT22;39202;51.468;7.146;2022-07-01T12:35:40;31.00;36.20
53314;DHT22;39202;51.468;7.146;2022-07-01T12:40:43;31.10;35.80
53314;DHT22;39202;51.468;7.146;2022-07-01T12:45:46;31.10;35.90
53314;DHT22;39202;51.468;7.146;2022-07-01T12:50:48;31.10;36.00
53314;DHT22;39202;51.468;7.146;2022-07-01T12:55:54;31.30;36.30
53314;DHT22;39202;51.468;7.146;2022-07-01T13:00:58;31.20;36.00
53314;DHT22;39202;51.468;7.146;2022-07-01T13:06:00;31.30;35.60
53314;DHT22;39202;51.468;7.146;2022-07-01T13:11:02;31.30;35.40
53314;DHT22;39202;51.468;7.146;2022-07-01T13:16:05;31.20;34.90
53314;DHT22;39202;51.468;7.146;2022-07-01T13:21:07;31.20;34.80
53314;DHT22;39202;51.468;7.146;2022-07-01T13:26:09;31.10;34.50
53314;DHT22;39202;51.468;7.146;2022-07-01T13:31:12;31.10;34.30
53314;DHT22;39202;51.468;7.146;2022-07-01T13:36:14;31.00;34.30
53314;DHT22;39202;51.468;7.146;2022-07-01T13:41:16;30.90;34.30
53314;DHT22;39202;51.468;7.146;2022-07-01T13:46:19;30.90;34.30
53314;DHT22;39202;51.468;7.146;2022-07-01T13:51:21;30.80;34.30
53314;DHT22;39202;51.468;7.146;2022-07-01T13:56:23;30.80;34.30
53314;DHT22;39202;51.468;7.146;2022-07-01T14:01:26;30.80;34.30
53314;DHT22;39202;51.468;7.146;2022-07-01T14:06:28;30.80;34.30
53314;DHT22;39202;51.468;7.146;2022-07-01T14:11:30;30.80;34.40
53314;DHT22;39202;51.468;7.146;2022-07-01T14:16:33;30.80;34.50
53314;DHT22;39202;51.468;7.146;2022-07-01T14:21:35;30.80;34.10
53314;DHT22;39202;51.468;7.146;2022-07-01T14:26:36;30.80;34.20
53314;DHT22;39202;51.468;7.146;2022-07-01T14:31:39;30.70;34.20
53314;DHT22;39202;51.468;7.146;2022-07-01T14:36:42;30.70;34.20
53314;DHT22;39202;51.468;7.146;2022-07-01T14:41:43;30.60;34.20
53314;DHT22;39202;51.468;7.146;2022-07-01T14:46:50;30.60;34.10
53314;DHT22;39202;51.468;7.146;2022-07-01T14:51:52;30.60;34.10
53314;DHT22;39202;51.468;7.146;2022-07-01T14:56:54;30.60;34.30
53314;DHT22;39202;51.468;7.146;2022-07-01T15:01:58;30.60;34.40
53314;DHT22;39202;51.468;7.146;2022-07-01T15:07:04;30.70;34.60
53314;DHT22;39202;51.468;7.146;2022-07-01T15:12:06;30.70;34.60
53314;DHT22;39202;51.468;7.146;2022-07-01T15:17:10;30.70;34.70
53314;DHT22;39202;51.468;7.146;2022-07-01T15:22:12;30.70;34.70
53314;DHT22;39202;51.468;7.146;2022-07-01T15:27:13;30.70;34.80
53314;DHT22;39202;51.468;7.146;2022-07-01T15:32:17;30.80;35.00
53314;DHT22;39202;51.468;7.146;2022-07-01T15:37:19;30.80;35.00
53314;DHT22;39202;51.468;7.146;2022-07-01T15:42:20;30.80;35.00
53314;DHT22;39202;51.468;7.146;2022-07-01T15:47:24;30.90;35.10
53314;DHT22;39202;51.468;7.146;2022-07-01T15:52:43;30.90;35.20
53314;DHT22;39202;51.468;7.146;2022-07-01T15:57:46;30.90;35.20
53314;DHT22;39202;51.468;7.146;2022-07-01T16:02:49;30.90;35.20
53314;DHT22;39202;51.468;7.146;2022-07-01T16:07:57;30.90;35.20
53314;DHT22;39202;51.468;7.146;2022-07-01T16:13:02;30.90;35.20
53314;DHT22;39202;51.468;7.146;2022-07-01T16:18:07;30.90;35.20
53314;DHT22;39202;51.468;7.146;2022-07-01T16:23:12;30.90;35.30
53314;DHT22;39202;51.468;7.146;2022-07-01T16:28:16;30.90;35.30
53314;DHT22;39202;51.468;7.146;2022-07-01T16:33:19;31.00;35.30
53314;DHT22;39202;51.468;7.146;2022-07-01T16:38:27;30.90;35.30
53314;DHT22;39202;51.468;7.146;2022-07-01T16:43:33;31.00;35.40
53314;DHT22;39202;51.468;7.146;2022-07-01T16:48:38;31.00;35.50
53314;DHT22;39202;51.468;7.146;2022-07-01T16:53:45;31.00;35.50
53314;DHT22;39202;51.468;7.146;2022-07-01T16:58:51;31.00;35.50
53314;DHT22;39202;51.468;7.146;2022-07-01T17:03:56;31.00;35.50
53314;DHT22;39202;51.468;7.146;2022-07-01T17:08:59;31.00;35.50
53314;DHT22;39202;51.468;7.146;2022-07-01T17:14:02;31.00;35.60
53314;DHT22;39202;51.468;7.146;2022-07-01T17:19:06;31.00;35.60
53314;DHT22;39202;51.468;7.146;2022-07-01T17:24:10;31.00;35.70
53314;DHT22;39202;51.468;7.146;2022-07-01T17:29:12;31.00;35.70
53314;DHT22;39202;51.468;7.146;2022-07-01T17:34:21;31.00;35.70
53314;DHT22;39202;51.468;7.146;2022-07-01T17:39:29;31.00;35.70
53314;DHT22;39202;51.468;7.146;2022-07-01T17:44:31;31.00;35.80
53314;DHT22;39202;51.468;7.146;2022-07-01T17:49:35;31.00;35.70
53314;DHT22;39202;51.468;7.146;2022-07-01T17:54:38;31.00;35.90
53314;DHT22;39202;51.468;7.146;2022-07-01T17:59:41;31.10;35.90
53314;DHT22;39202;51.468;7.146;2022-07-01T18:04:47;31.00;35.90
53314;DHT22;39202;51.468;7.146;2022-07-01T18:09:49;31.10;36.00
53314;DHT22;39202;51.468;7.146;2022-07-01T18:15:00;31.00;35.90
53314;DHT22;39202;51.468;7.146;2022-07-01T18:20:07;31.00;36.00
53314;DHT22;39202;51.468;7.146;2022-07-01T18:25:11;31.00;36.00
53314;DHT22;39202;51.468;7.146;2022-07-01T18:30:14;31.00;36.00
53314;DHT22;39202;51.468;7.146;2022-07-01T18:35:19;31.00;36.00
53314;DHT22;39202;51.468;7.146;2022-07-01T18:40:23;31.10;36.10
53314;DHT22;39202;51.468;7.146;2022-07-01T18:45:26;31.10;36.10
53314;DHT22;39202;51.468;7.146;2022-07-01T18:50:31;31.10;36.10
53314;DHT22;39202;51.468;7.146;2022-07-01T18:55:33;31.10;36.20
53314;DHT22;39202;51.468;7.146;2022-07-01T19:00:36;31.10;36.20
53314;DHT22;39202;51.468;7.146;2022-07-01T19:05:39;31.10;36.20
53314;DHT22;39202;51.468;7.146;2022-07-01T19:10:41;31.10;36.30
53314;DHT22;39202;51.468;7.146;2022-07-01T19:15:43;31.10;36.30
53314;DHT22;39202;51.468;7.146;2022-07-01T19:20:46;31.10;36.30
53314;DHT22;39202;51.468;7.146;2022-07-01T19:25:48;31.10;36.30
53314;DHT22;39202;51.468;7.146;2022-07-01T19:30:50;31.10;36.40
53314;DHT22;39202;51.468;7.146;2022-07-01T19:35:53;31.00;36.40
53314;DHT22;39202;51.468;7.146;2022-07-01T19:40:55;31.00;36.40
53314;DHT22;39202;51.468;7.146;2022-07-01T19:45:56;31.10;36.50
53314;DHT22;39202;51.468;7.146;2022-07-01T19:51:02;31.00;36.40
53314;DHT22;39202;51.468;7.146;2022-07-01T19:56:04;31.00;36.40
53314;DHT22;39202;51.468;7.146;2022-07-01T20:01:05;31.00;36.50
53314;DHT22;39202;51.468;7.146;2022-07-01T20:06:09;31.00;36.50
53314;DHT22;39202;51.468;7.146;2022-07-01T20:11:11;31.00;36.60
53314;DHT22;39202;51.468;7.146;2022-07-01T20:16:13;31.00;36.60
53314;DHT22;39202;51.468;7.146;2022-07-01T20:21:16;31.00;36.60
53314;DHT22;39202;51.468;7.146;2022-07-01T20:26:18;30.90;36.60
53314;DHT22;39202;51.468;7.146;2022-07-01T20:31:20;30.90;36.60
53314;DHT22;39202;51.468;7.146;2022-07-01T20:36:23;30.90;36.60
53314;DHT22;39202;51.468;7.146;2022-07-01T20:41:25;30.90;36.60
53314;DHT22;39202;51.468;7.146;2022-07-01T20:46:27;30.90;36.70
53314;DHT22;39202;51.468;7.146;2022-07-01T20:51:30;30.90;36.70
53314;DHT22;39202;51.468;7.146;2022-07-01T20:56:32;30.90;36.80
53314;DHT22;39202;51.468;7.146;2022-07-01T21:01:33;30.90;36.80
53314;DHT22;39202;51.468;7.146;2022-07-01T21:06:36;30.90;36.70
53314;DHT22;39202;51.468;7.146;2022-07-01T21:11:38;30.80;36.70
53314;DHT22;39202;51.468;7.146;2022-07-01T21:16:40;30.80;36.80
53314;DHT22;39202;51.468;7.146;2022-07-01T21:21:43;30.80;36.80
53314;DHT22;39202;51.468;7.146;2022-07-01T21:26:45;30.80;36.80
53314;DHT22;39202;51.468;7.146;2022-07-01T21:31:47;30.80;37.60
53314;DHT22;39202;51.468;7.146;2022-07-01T21:36:50;31.00;36.90
53314;DHT22;39202;51.468;7.146;2022-07-01T21:41:52;30.80;36.90
53314;DHT22;39202;51.468;7.146;2022-07-01T21:46:54;30.80;36.90
53314;DHT22;39202;51.468;7.146;2022-07-01T21:51:57;30.80;37.00
53314;DHT22;39202;51.468;7.146;2022-07-01T21:56:59;30.70;36.90
53314;DHT22;39202;51.468;7.146;2022-07-01T22:02:04;30.70;36.90
53314;DHT22;39202;51.468;7.146;2022-07-01T22:07:08;30.70;36.90
53314;DHT22;39202;51.468;7.146;2022-07-01T22:12:10;30.80;37.00
53314;DHT22;39202;51.468;7.146;2022-07-01T22:17:21;30.70;37.00
53314;DHT22;39202;51.468;7.146;2022-07-01T22:22:26;30.70;37.00
53314;DHT22;39202;51.468;7.146;2022-07-01T22:27:30;30.70;37.00
53314;DHT22;39202;51.468;7.146;2022-07-01T22:32:33;30.70;37.00
53314;DHT22;39202;51.468;7.146;2022-07-01T22:37:39;30.70;37.00
53314;DHT22;39202;51.468;7.146;2022-07-01T22:42:43;30.70;37.00
53314;DHT22;39202;51.468;7.146;2022-07-01T22:47:50;30.60;37.00
53314;DHT22;39202;51.468;7.146;2022-07-01T22:53:00;30.70;37.10
53314;DHT22;39202;51.468;7.146;2022-07-01T22:58:09;30.70;37.10
53314;DHT22;39202;51.468;7.146;2022-07-01T23:03:12;30.70;37.10
53314;DHT22;39202;51.468;7.146;2022-07-01T23:08:20;30.60;37.00
53314;DHT22;39202;51.468;7.146;2022-07-01T23:13:27;30.60;37.10
53314;DHT22;39202;51.468;7.146;2022-07-01T23:18:31;30.60;37.10
53314;DHT22;39202;51.468;7.146;2022-07-01T23:23:37;30.60;37.20
53314;DHT22;39202;51.468;7.146;2022-07-01T23:28:39;30.60;37.20
53314;DHT22;39202;51.468;7.146;2022-07-01T23:33:41;30.60;37.20
53314;DHT22;39202;51.468;7.146;2022-07-01T23:38:45;30.60;37.20
53314;DHT22;39202;51.468;7.146;2022-07-01T23:43:48;30.60;37.20
53314;DHT22;39202;51.468;7.146;2022-07-01T23:48:50;30.60;37.20
53314;DHT22;39202;51.468;7.146;2022-07-01T23:53:53;30.60;37.20
53314;DHT22;39202;51.468;7.146;2022-07-01T23:58:55;30.60;37.30
